createdAt,value
2022-11-15T00:01:59.050Z,48.50
2022-11-15T00:04:45.262Z,48.50
2022-11-15T00:07:54.759Z,48.50
2022-11-15T00:10:39.478Z,48.50
2022-11-15T00:13:26.089Z,48.50
2022-11-15T00:16:12.491Z,48.50
2022-11-15T00:18:59.160Z,48.50
2022-11-15T00:21:45.527Z,48.50
2022-11-15T00:24:31.885Z,48.50
2022-11-15T00:27:19.655Z,48.50
2022-11-15T00:30:07.042Z,48.50
2022-11-15T00:32:54.071Z,49.10
2022-11-15T00:35:40.883Z,48.50
2022-11-15T00:38:27.394Z,48.40
2022-11-15T00:41:13.670Z,48.40
2022-11-15T00:44:01.557Z,48.40
2022-11-15T00:46:48.095Z,48.50
2022-11-15T00:49:34.473Z,48.50
2022-11-15T00:52:20.899Z,48.50
2022-11-15T00:55:07.944Z,48.50
2022-11-15T00:57:54.221Z,48.60
2022-11-15T01:00:41.991Z,48.70
2022-11-15T01:03:28.195Z,48.70
2022-11-15T01:06:14.561Z,48.70
2022-11-15T01:09:01.043Z,48.70
2022-11-15T01:11:47.617Z,48.80
2022-11-15T01:14:34.027Z,48.70
2022-11-15T01:17:21.559Z,48.70
2022-11-15T01:20:09.277Z,48.80
2022-11-15T01:22:55.859Z,48.70
2022-11-15T01:25:42.019Z,48.80
2022-11-15T01:28:32.089Z,48.80
2022-11-15T01:31:19.758Z,48.80
2022-11-15T01:34:07.591Z,48.80
2022-11-15T01:36:54.041Z,48.80
2022-11-15T01:39:40.628Z,48.80
2022-11-15T01:42:26.917Z,48.80
2022-11-15T01:45:14.636Z,48.80
2022-11-15T01:48:00.781Z,48.80
2022-11-15T01:50:48.419Z,48.80
2022-11-15T01:53:34.933Z,48.90
2022-11-15T01:56:23.902Z,48.90
2022-11-15T01:59:10.503Z,48.90
2022-11-15T02:01:56.790Z,48.90
2022-11-15T02:04:43.835Z,48.90
2022-11-15T02:07:31.633Z,48.90
2022-11-15T02:10:20.500Z,48.80
2022-11-15T02:13:06.710Z,48.90
2022-11-15T02:16:02.632Z,48.80
2022-11-15T02:18:51.267Z,48.90
2022-11-15T02:21:38.838Z,48.90
2022-11-15T02:24:51.976Z,48.90
2022-11-15T02:28:03.245Z,48.90
2022-11-15T02:30:52.008Z,48.90
2022-11-15T02:33:43.569Z,48.90
2022-11-15T02:36:36.224Z,48.90
2022-11-15T02:39:25.273Z,48.80
2022-11-15T02:42:27.232Z,49.50
2022-11-15T02:45:15.009Z,48.90
2022-11-15T02:48:02.622Z,48.90
2022-11-15T02:50:48.930Z,48.90
2022-11-15T02:53:35.421Z,48.80
2022-11-15T02:56:21.862Z,48.90
2022-11-15T02:59:18.402Z,48.90
2022-11-15T03:02:12.475Z,48.90
2022-11-15T03:05:00.707Z,48.90
2022-11-15T03:07:51.823Z,48.90
2022-11-15T03:10:44.108Z,49.00
2022-11-15T03:13:35.155Z,48.90
2022-11-15T03:16:22.572Z,49.00
2022-11-15T03:19:15.972Z,49.00
2022-11-15T03:22:05.578Z,49.00
2022-11-15T03:24:54.089Z,49.00
2022-11-15T03:27:41.849Z,49.00
2022-11-15T03:30:27.999Z,49.00
2022-11-15T03:33:14.392Z,49.00
2022-11-15T03:36:00.714Z,49.00
2022-11-15T03:38:48.309Z,49.00
2022-11-15T03:41:37.679Z,49.10
2022-11-15T03:44:30.708Z,49.00
2022-11-15T03:47:19.493Z,49.00
2022-11-15T03:50:09.068Z,49.00
2022-11-15T03:52:55.846Z,49.00
2022-11-15T03:55:43.308Z,49.10
2022-11-15T03:58:29.704Z,49.00
2022-11-15T04:01:16.039Z,49.00
2022-11-15T04:04:02.310Z,49.00
2022-11-15T04:06:48.846Z,49.00
2022-11-15T04:09:55.176Z,49.00
2022-11-15T04:12:44.477Z,49.00
2022-11-15T04:15:30.904Z,49.00
2022-11-15T04:18:17.415Z,49.00
2022-11-15T04:21:21.448Z,49.00
2022-11-15T04:24:14.023Z,49.00
2022-11-15T04:27:00.419Z,49.00
2022-11-15T04:29:48.178Z,48.90
2022-11-15T04:32:34.650Z,49.00
2022-11-15T04:35:21.037Z,49.00
2022-11-15T04:38:08.463Z,49.00
2022-11-15T04:40:54.849Z,49.10
2022-11-15T04:43:41.222Z,49.20
2022-11-15T04:46:29.034Z,49.10
2022-11-15T04:49:15.457Z,49.20
2022-11-15T04:52:01.651Z,49.20
2022-11-15T04:54:48.126Z,49.20
2022-11-15T04:57:34.527Z,49.30
2022-11-15T05:00:21.156Z,49.30
2022-11-15T05:03:26.228Z,49.30
2022-11-15T05:06:12.612Z,49.30
2022-11-15T05:08:59.148Z,49.40
2022-11-15T05:11:45.594Z,49.40
2022-11-15T05:14:32.204Z,49.30
2022-11-15T05:17:18.621Z,50.00
2022-11-15T05:20:07.427Z,49.40
2022-11-15T05:22:54.323Z,49.40
2022-11-15T05:25:40.611Z,49.40
2022-11-15T05:28:26.841Z,49.30
2022-11-15T05:31:14.294Z,49.40
2022-11-15T05:34:00.492Z,49.40
2022-11-15T05:36:48.279Z,49.50
2022-11-15T05:39:34.606Z,49.50
2022-11-15T05:42:21.061Z,49.50
2022-11-15T05:45:08.507Z,49.50
2022-11-15T05:47:54.603Z,49.50
2022-11-15T05:50:41.470Z,49.50
2022-11-15T05:53:29.113Z,49.50
2022-11-15T05:56:15.899Z,49.50
2022-11-15T05:59:02.453Z,49.50
2022-11-15T06:01:48.893Z,49.50
2022-11-15T06:04:35.365Z,49.50
2022-11-15T06:07:21.582Z,49.50
2022-11-15T06:10:10.786Z,49.50
2022-11-15T06:13:00.300Z,49.50
2022-11-15T06:15:46.778Z,49.60
2022-11-15T06:18:34.282Z,49.60
2022-11-15T06:21:20.367Z,49.60
2022-11-15T06:24:07.387Z,49.50
2022-11-15T06:26:54.997Z,49.50
2022-11-15T06:29:41.117Z,49.50
2022-11-15T06:32:27.439Z,49.50
2022-11-15T06:35:14.000Z,49.50
2022-11-15T06:38:04.318Z,49.50
2022-11-15T06:40:50.691Z,49.50
2022-11-15T06:43:38.717Z,49.50
2022-11-15T06:46:24.958Z,49.80
2022-11-15T06:49:11.303Z,49.50
2022-11-15T06:51:57.630Z,49.50
2022-11-15T06:54:44.002Z,49.50
2022-11-15T06:57:30.398Z,49.50
2022-11-15T07:00:19.220Z,49.50
2022-11-15T07:03:05.728Z,49.60
2022-11-15T07:05:54.940Z,49.50
2022-11-15T07:08:42.518Z,49.50
2022-11-15T07:11:28.867Z,49.50
2022-11-15T07:14:15.395Z,49.50
2022-11-15T07:17:04.918Z,49.50
2022-11-15T07:19:51.195Z,49.50
2022-11-15T07:22:37.836Z,49.50
2022-11-15T07:25:24.174Z,49.50
2022-11-15T07:28:10.879Z,49.50
2022-11-15T07:30:57.410Z,49.50
2022-11-15T07:33:44.786Z,49.50
2022-11-15T07:36:31.163Z,49.50
2022-11-15T07:39:17.531Z,49.50
2022-11-15T07:42:21.582Z,49.50
2022-11-15T07:45:08.475Z,49.50
2022-11-15T07:47:55.125Z,49.50
2022-11-15T07:50:44.018Z,49.50
2022-11-15T07:53:30.437Z,49.50
2022-11-15T07:56:17.254Z,49.50
2022-11-15T07:59:03.500Z,49.50
2022-11-15T08:01:49.684Z,49.40
2022-11-15T08:04:36.006Z,49.50
2022-11-15T08:07:23.935Z,49.40
2022-11-15T08:10:10.451Z,49.50
2022-11-15T08:13:00.628Z,49.50
2022-11-15T08:15:46.891Z,49.50
2022-11-15T08:18:33.166Z,49.40
2022-11-15T08:21:20.824Z,49.40
2022-11-15T08:24:10.465Z,49.40
2022-11-15T08:26:57.034Z,49.30
2022-11-15T08:29:44.388Z,49.40
2022-11-15T08:32:30.745Z,49.30
2022-11-15T08:35:16.943Z,49.30
2022-11-15T08:38:03.208Z,49.40
2022-11-15T08:40:50.943Z,49.40
2022-11-15T08:43:37.349Z,49.40
2022-11-15T08:46:23.847Z,49.40
2022-11-15T08:49:10.240Z,49.40
2022-11-15T08:51:56.747Z,49.40
2022-11-15T08:54:43.164Z,49.40
2022-11-15T08:57:32.011Z,49.40
2022-11-15T09:00:20.672Z,49.40
2022-11-15T09:03:07.271Z,49.50
2022-11-15T09:05:56.563Z,49.50
2022-11-15T09:08:49.802Z,49.50
2022-11-15T09:11:36.094Z,49.50
2022-11-15T09:14:23.900Z,49.40
2022-11-15T09:17:10.450Z,49.40
2022-11-15T09:19:56.818Z,49.50
2022-11-15T09:22:43.320Z,50.10
2022-11-15T09:25:29.942Z,49.50
2022-11-15T09:28:16.026Z,49.40
2022-11-15T09:31:06.748Z,49.50
2022-11-15T09:33:53.738Z,49.50
2022-11-15T09:36:40.233Z,49.50
2022-11-15T09:39:26.631Z,49.50
2022-11-15T09:42:27.706Z,49.50
2022-11-15T09:45:18.783Z,49.40
2022-11-15T09:48:24.811Z,49.50
2022-11-15T09:51:23.366Z,49.40
2022-11-15T09:56:42.745Z,49.40
2022-11-15T09:59:20.416Z,49.40
2022-11-15T10:01:52.543Z,49.30
2022-11-15T10:04:22.054Z,49.40
2022-11-15T10:06:53.541Z,49.30
2022-11-15T10:09:24.063Z,49.30
2022-11-15T10:11:51.919Z,49.40
2022-11-15T10:14:21.102Z,49.40
2022-11-15T10:17:01.971Z,49.40
2022-11-15T10:19:35.211Z,49.30
2022-11-15T10:22:13.515Z,49.40
2022-11-15T10:24:43.493Z,49.40
2022-11-15T10:27:13.033Z,49.50
2022-11-15T10:29:45.073Z,49.40
2022-11-15T10:32:12.986Z,49.40
2022-11-15T10:34:42.074Z,49.30
2022-11-15T10:37:09.810Z,49.30
2022-11-15T10:39:37.479Z,49.30
2022-11-15T10:42:18.483Z,49.20
2022-11-15T10:44:46.644Z,49.20
2022-11-15T10:47:28.625Z,49.20
2022-11-15T10:50:02.570Z,49.40
2022-11-15T10:52:31.010Z,49.30
2022-11-15T10:55:01.091Z,49.30
2022-11-15T10:57:30.797Z,49.30
2022-11-15T11:00:00.133Z,49.60
2022-11-15T11:02:33.118Z,49.30
2022-11-15T11:05:02.383Z,49.40
2022-11-15T11:07:31.280Z,49.40
2022-11-15T11:10:00.801Z,49.40
2022-11-15T11:12:33.195Z,49.40
2022-11-15T11:15:02.565Z,50.00
2022-11-15T11:17:38.726Z,49.50
2022-11-15T11:20:11.861Z,49.40
2022-11-15T11:22:43.828Z,49.40
2022-11-15T11:25:20.304Z,49.30
2022-11-15T11:27:56.967Z,49.60
2022-11-15T11:30:26.882Z,49.50
2022-11-15T11:33:07.788Z,49.50
2022-11-15T11:35:41.452Z,49.60
2022-11-15T11:38:19.591Z,49.70
2022-11-15T11:41:00.032Z,49.80
2022-11-15T11:43:29.782Z,51.20
2022-11-15T11:46:11.841Z,50.40
2022-11-15T11:48:43.059Z,50.50
2022-11-15T11:51:16.345Z,50.60
2022-11-15T11:53:47.421Z,50.50
2022-11-15T11:56:21.490Z,50.60
2022-11-15T11:58:49.274Z,50.80
2022-11-15T12:01:18.187Z,50.60
2022-11-15T12:03:47.703Z,50.80
2022-11-15T12:06:22.406Z,50.80
2022-11-15T12:08:52.577Z,50.90
2022-11-15T12:11:22.786Z,50.90
2022-11-15T12:13:52.643Z,51.00
2022-11-15T12:16:22.195Z,50.60
2022-11-15T12:18:51.072Z,50.70
2022-11-15T12:21:28.347Z,50.90
2022-11-15T12:23:58.188Z,50.90
2022-11-15T12:26:28.085Z,50.80
2022-11-15T12:29:07.306Z,49.00
2022-11-15T12:31:39.036Z,48.00
2022-11-15T12:34:15.304Z,47.20
2022-11-15T12:36:44.946Z,47.00
2022-11-15T12:39:13.031Z,46.40
2022-11-15T12:41:41.081Z,46.30
2022-11-15T12:44:12.718Z,46.00
2022-11-15T12:47:02.474Z,45.50
2022-11-15T12:49:49.620Z,44.70
2022-11-15T12:52:18.676Z,44.90
2022-11-15T12:55:01.144Z,45.40
2022-11-15T12:57:34.511Z,45.00
2022-11-15T13:00:04.192Z,45.20
2022-11-15T13:02:32.390Z,45.00
2022-11-15T13:05:41.750Z,45.10
2022-11-15T13:08:10.763Z,44.70
2022-11-15T13:10:38.420Z,45.50
2022-11-15T13:13:06.629Z,45.50
2022-11-15T13:15:47.182Z,45.80
2022-11-15T13:18:39.781Z,45.70
2022-11-15T13:21:41.058Z,46.60
2022-11-15T13:24:14.570Z,47.00
2022-11-15T13:26:42.251Z,46.40
2022-11-15T13:29:20.015Z,46.30
2022-11-15T13:31:47.784Z,46.00
2022-11-15T13:34:49.413Z,46.10
2022-11-15T13:37:11.752Z,46.00
2022-11-15T13:39:40.780Z,46.50
2022-11-15T13:42:15.351Z,46.70
2022-11-15T13:44:43.055Z,47.00
2022-11-15T13:47:17.470Z,47.50
2022-11-15T13:49:45.169Z,47.70
2022-11-15T13:52:14.902Z,47.90
2022-11-15T13:54:45.290Z,49.00
2022-11-15T13:57:14.548Z,49.10
2022-11-15T13:59:47.171Z,48.60
2022-11-15T14:02:16.355Z,49.00
2022-11-15T14:04:48.163Z,49.40
2022-11-15T14:07:18.592Z,49.90
2022-11-15T14:09:47.829Z,49.90
2022-11-15T14:12:31.093Z,49.90
2022-11-15T14:14:59.246Z,50.60
2022-11-15T14:17:45.651Z,50.80
2022-11-15T14:20:22.486Z,51.50
2022-11-15T14:22:54.026Z,51.30
2022-11-15T14:25:23.927Z,51.50
2022-11-15T14:28:12.889Z,51.60
2022-11-15T14:30:40.771Z,51.90
2022-11-15T14:33:20.336Z,51.70
2022-11-15T14:35:48.089Z,52.00
2022-11-15T14:38:15.897Z,52.60
2022-11-15T14:40:45.009Z,51.70
2022-11-15T14:43:12.998Z,50.50
2022-11-15T14:45:40.670Z,49.80
2022-11-15T14:48:08.346Z,50.60
2022-11-15T14:50:36.182Z,51.50
2022-11-15T14:53:03.955Z,51.50
2022-11-15T14:55:33.417Z,52.10
2022-11-15T14:58:03.812Z,52.10
2022-11-15T15:00:35.235Z,52.50
2022-11-15T15:03:03.691Z,53.10
2022-11-15T15:05:33.319Z,53.00
2022-11-15T15:08:01.145Z,52.90
2022-11-15T15:10:39.931Z,53.00
2022-11-15T15:13:14.604Z,53.10
2022-11-15T15:15:42.277Z,53.40
2022-11-15T15:18:12.143Z,53.40
2022-11-15T15:20:40.977Z,53.00
2022-11-15T15:23:12.462Z,53.50
2022-11-15T15:25:42.848Z,53.80
2022-11-15T15:28:11.907Z,53.70
2022-11-15T15:30:39.609Z,53.70
2022-11-15T15:33:07.341Z,53.80
2022-11-15T15:35:36.078Z,53.90
2022-11-15T15:38:04.017Z,53.90
2022-11-15T15:40:32.821Z,53.90
2022-11-15T15:43:00.535Z,54.10
2022-11-15T15:45:30.481Z,54.00
2022-11-15T15:47:58.177Z,53.90
2022-11-15T15:50:27.637Z,53.90
2022-11-15T15:52:56.198Z,53.90
2022-11-15T15:55:24.049Z,54.00
2022-11-15T15:57:52.018Z,54.00
2022-11-15T16:00:20.241Z,54.60
2022-11-15T16:02:49.476Z,54.80
2022-11-15T16:05:18.222Z,54.90
2022-11-15T16:07:47.224Z,55.00
2022-11-15T16:10:23.296Z,55.40
2022-11-15T16:12:51.043Z,55.50
2022-11-15T16:15:19.027Z,55.20
2022-11-15T16:17:50.715Z,55.00
2022-11-15T16:20:33.979Z,55.00
2022-11-15T16:23:07.371Z,55.40
2022-11-15T16:25:38.951Z,55.30
2022-11-15T16:28:06.627Z,55.10
2022-11-15T16:30:34.402Z,55.00
2022-11-15T16:33:03.566Z,55.10
2022-11-15T16:35:31.272Z,55.30
2022-11-15T16:37:58.922Z,55.10
2022-11-15T16:40:30.826Z,55.30
2022-11-15T16:42:59.739Z,55.20
2022-11-15T16:45:29.169Z,55.20
2022-11-15T16:47:57.146Z,55.20
2022-11-15T16:50:26.981Z,55.20
2022-11-15T16:52:55.359Z,55.10
2022-11-15T16:55:23.695Z,55.20
2022-11-15T16:57:51.914Z,55.00
2022-11-15T17:00:20.279Z,55.30
2022-11-15T17:02:49.032Z,55.20
2022-11-15T17:05:20.070Z,55.20
2022-11-15T17:07:50.362Z,55.30
2022-11-15T17:10:18.521Z,55.50
2022-11-15T17:12:46.343Z,55.50
2022-11-15T17:15:14.287Z,55.80
2022-11-15T17:17:42.173Z,55.60
2022-11-15T17:20:14.820Z,55.60
2022-11-15T17:22:42.485Z,55.30
2022-11-15T17:25:11.767Z,55.20
2022-11-15T17:27:39.472Z,55.10
2022-11-15T17:30:08.511Z,55.00
2022-11-15T17:32:37.123Z,55.00
2022-11-15T17:35:11.983Z,54.50
2022-11-15T17:37:42.658Z,54.70
2022-11-15T17:40:12.397Z,54.80
2022-11-15T17:42:41.794Z,55.00
2022-11-15T17:45:10.597Z,55.00
2022-11-15T17:47:38.504Z,55.20
2022-11-15T17:50:06.774Z,55.30
2022-11-15T17:52:34.451Z,55.10
2022-11-15T17:55:02.123Z,54.90
2022-11-15T17:57:31.121Z,54.80
2022-11-15T17:59:58.809Z,54.90
2022-11-15T18:02:26.517Z,54.90
2022-11-15T18:04:54.218Z,54.80
2022-11-15T18:07:22.003Z,53.90
2022-11-15T18:09:49.723Z,54.20
2022-11-15T18:12:17.394Z,54.40
2022-11-15T18:14:46.438Z,54.50
2022-11-15T18:17:14.144Z,54.50
2022-11-15T18:19:41.971Z,54.50
2022-11-15T18:22:10.203Z,54.50
2022-11-15T18:24:38.448Z,54.40
2022-11-15T18:27:06.959Z,54.40
2022-11-15T18:29:37.926Z,54.50
2022-11-15T18:32:11.570Z,54.50
2022-11-15T18:34:39.410Z,54.40
2022-11-15T18:37:07.202Z,55.00
2022-11-15T18:39:35.101Z,54.40
2022-11-15T18:42:03.212Z,54.20
2022-11-15T18:44:31.104Z,54.40
2022-11-15T18:46:59.190Z,54.50
2022-11-15T18:49:28.187Z,54.30
2022-11-15T18:51:56.912Z,54.30
2022-11-15T18:54:30.585Z,54.30
2022-11-15T18:56:59.563Z,54.30
2022-11-15T18:59:28.054Z,54.30
2022-11-15T19:01:56.818Z,54.30
2022-11-15T19:04:24.798Z,54.10
2022-11-15T19:06:54.207Z,54.20
2022-11-15T19:09:22.066Z,54.20
2022-11-15T19:11:51.388Z,54.00
2022-11-15T19:14:24.112Z,54.10
2022-11-15T19:16:53.044Z,54.00
2022-11-15T19:19:22.226Z,54.10
2022-11-15T19:21:50.002Z,54.00
2022-11-15T19:24:18.993Z,54.00
2022-11-15T19:26:47.453Z,54.50
2022-11-15T19:29:15.390Z,54.00
2022-11-15T19:31:43.128Z,54.00
2022-11-15T19:34:11.141Z,54.00
2022-11-15T19:36:39.870Z,54.00
2022-11-15T19:39:09.910Z,54.10
2022-11-15T19:41:39.618Z,54.10
2022-11-15T19:44:07.444Z,54.10
2022-11-15T19:46:35.278Z,54.20
2022-11-15T19:49:03.101Z,54.30
2022-11-15T19:51:31.353Z,54.30
2022-11-15T19:54:03.447Z,54.40
2022-11-15T19:56:31.128Z,54.30
2022-11-15T19:59:00.290Z,54.50
2022-11-15T20:01:29.054Z,54.30
2022-11-15T20:03:58.769Z,54.40
2022-11-15T20:06:28.756Z,54.40
2022-11-15T20:08:56.778Z,54.30
2022-11-15T20:11:24.476Z,54.40
2022-11-15T20:13:52.191Z,54.40
2022-11-15T20:16:21.954Z,54.50
2022-11-15T20:18:50.287Z,54.40
2022-11-15T20:21:18.201Z,54.40
2022-11-15T20:23:46.094Z,54.40
2022-11-15T20:26:15.780Z,54.40
2022-11-15T20:28:44.603Z,54.30
2022-11-15T20:31:12.458Z,54.30
2022-11-15T20:33:41.534Z,54.30
2022-11-15T20:36:11.269Z,54.20
2022-11-15T20:38:38.960Z,54.20
2022-11-15T20:41:06.929Z,54.10
2022-11-15T20:43:34.673Z,54.00
2022-11-15T20:46:02.358Z,54.00
2022-11-15T20:48:30.410Z,53.90
2022-11-15T20:51:06.651Z,53.90
2022-11-15T20:53:34.827Z,53.70
2022-11-15T20:56:07.698Z,53.70
2022-11-15T20:58:35.925Z,53.70
2022-11-15T21:01:03.991Z,53.70
2022-11-15T21:03:31.993Z,53.50
2022-11-15T21:05:59.763Z,53.40
2022-11-15T21:08:48.744Z,53.40
2022-11-15T21:11:34.210Z,53.20
2022-11-15T21:14:06.294Z,53.20
2022-11-15T21:16:36.599Z,53.00
2022-11-15T21:19:04.621Z,52.90
2022-11-15T21:21:32.315Z,52.80
2022-11-15T21:24:02.906Z,52.80
2022-11-15T21:26:30.679Z,52.60
2022-11-15T21:28:58.664Z,52.50
2022-11-15T21:31:26.398Z,52.40
2022-11-15T21:33:54.069Z,52.30
2022-11-15T21:36:21.817Z,52.20
2022-11-15T21:38:49.462Z,52.10
2022-11-15T21:41:18.442Z,52.00
2022-11-15T21:43:46.087Z,51.80
2022-11-15T21:46:13.748Z,51.80
2022-11-15T21:48:41.462Z,51.60
2022-11-15T21:51:11.244Z,51.60
2022-11-15T21:53:38.907Z,51.50
2022-11-15T21:56:07.246Z,51.40
2022-11-15T21:58:36.579Z,51.20
2022-11-15T22:01:22.246Z,51.10
2022-11-15T22:03:50.011Z,51.10
2022-11-15T22:06:18.416Z,51.00
2022-11-15T22:08:46.372Z,50.80
2022-11-15T22:11:14.128Z,50.60
2022-11-15T22:13:43.226Z,50.50
2022-11-15T22:16:11.081Z,50.40
2022-11-15T22:18:39.204Z,50.40
2022-11-15T22:21:08.000Z,50.20
2022-11-15T22:23:36.155Z,50.00
2022-11-15T22:26:04.166Z,49.90
2022-11-15T22:28:32.195Z,49.70
2022-11-15T22:31:01.413Z,49.60
2022-11-15T22:33:30.024Z,49.50
2022-11-15T22:35:57.828Z,49.30
2022-11-15T22:38:25.618Z,49.30
2022-11-15T22:40:53.383Z,49.10
2022-11-15T22:43:22.067Z,49.00
2022-11-15T22:45:53.551Z,48.80
2022-11-15T22:48:23.461Z,48.60
2022-11-15T22:50:51.251Z,48.60
2022-11-15T22:53:19.041Z,48.60
2022-11-15T22:55:50.652Z,48.40
2022-11-15T22:58:18.346Z,48.10
2022-11-15T23:00:48.612Z,48.10
2022-11-15T23:03:16.376Z,48.00
2022-11-15T23:05:45.499Z,47.90
2022-11-15T23:08:13.359Z,47.60
2022-11-15T23:10:58.829Z,47.60
2022-11-15T23:13:27.368Z,47.50
2022-11-15T23:16:19.878Z,47.20
2022-11-15T23:18:47.569Z,46.90
2022-11-15T23:21:39.342Z,47.10
2022-11-15T23:24:06.329Z,46.70
2022-11-15T23:26:34.098Z,46.70
2022-11-15T23:29:01.783Z,46.60
2022-11-15T23:31:47.674Z,46.50
2022-11-15T23:34:22.139Z,46.40
2022-11-15T23:36:51.400Z,46.20
2022-11-15T23:39:19.128Z,46.00
2022-11-15T23:41:46.809Z,46.10
2022-11-15T23:44:14.699Z,45.80
2022-11-15T23:46:42.345Z,45.70
2022-11-15T23:49:09.993Z,45.60
2022-11-15T23:51:37.759Z,45.40
2022-11-15T23:54:07.007Z,45.00
2022-11-15T23:56:34.916Z,45.00
2022-11-15T23:59:03.149Z,44.90
